createdAt,value
2018-05-08T00:00:09.853Z,91.70
2018-05-08T00:02:38.193Z,91.90
2018-05-08T00:05:06.537Z,92.00
2018-05-08T00:07:34.905Z,92.00
2018-05-08T00:10:03.255Z,92.10
2018-05-08T00:12:31.600Z,92.20
2018-05-08T00:14:59.959Z,92.50
2018-05-08T00:17:28.327Z,92.50
2018-05-08T00:19:56.718Z,92.50
2018-05-08T00:22:25.050Z,92.70
2018-05-08T00:24:53.391Z,93.00
2018-05-08T00:27:21.736Z,93.00
2018-05-08T00:29:50.080Z,93.00
2018-05-08T00:32:18.419Z,93.10
2018-05-08T00:34:46.808Z,93.50
2018-05-08T00:37:15.287Z,93.50
2018-05-08T00:39:43.645Z,93.70
2018-05-08T00:42:11.989Z,93.70
2018-05-08T00:44:41.139Z,93.90
2018-05-08T00:47:09.482Z,93.90
2018-05-08T00:49:38.579Z,93.90
2018-05-08T00:52:07.737Z,93.90
2018-05-08T00:54:48.024Z,93.90
2018-05-08T00:57:17.152Z,94.00
2018-05-08T00:59:45.515Z,94.00
2018-05-08T01:02:14.632Z,94.30
2018-05-08T01:04:42.978Z,94.30
2018-05-08T01:07:12.844Z,94.80
2018-05-08T01:09:41.202Z,94.70
2018-05-08T01:12:09.543Z,94.90
2018-05-08T01:14:38.649Z,94.90
2018-05-08T01:17:07.935Z,94.90
2018-05-08T01:19:36.127Z,94.80
2018-05-08T01:22:05.245Z,94.90
2018-05-08T01:24:33.631Z,94.90
2018-05-08T01:27:01.967Z,95.00
2018-05-08T01:29:31.070Z,95.20
2018-05-08T01:32:00.203Z,95.20
2018-05-08T01:34:28.538Z,95.20
2018-05-08T01:36:56.953Z,95.30
2018-05-08T01:39:25.331Z,95.50
2018-05-08T01:41:53.673Z,95.50
2018-05-08T01:44:22.840Z,95.60
2018-05-08T01:46:51.180Z,95.50
2018-05-08T01:49:20.309Z,95.50
2018-05-08T01:51:48.687Z,95.50
2018-05-08T01:54:17.146Z,95.50
2018-05-08T01:56:45.648Z,95.60
2018-05-08T01:59:13.992Z,95.80
2018-05-08T02:01:42.331Z,96.00
2018-05-08T02:04:10.680Z,96.00
2018-05-08T02:06:39.026Z,96.10
2018-05-08T02:09:07.407Z,96.20
2018-05-08T02:11:35.816Z,96.20
2018-05-08T02:14:04.144Z,96.20
2018-05-08T02:16:33.337Z,96.80
2018-05-08T02:19:01.749Z,96.50
2018-05-08T02:21:30.094Z,96.70
2018-05-08T02:23:58.442Z,96.70
2018-05-08T02:26:27.277Z,96.80
2018-05-08T02:28:56.615Z,97.00
2018-05-08T02:31:24.993Z,96.70
2018-05-08T02:33:53.348Z,96.80
2018-05-08T02:36:21.861Z,97.00
2018-05-08T02:38:50.216Z,97.10
2018-05-08T02:41:18.554Z,97.20
2018-05-08T02:43:47.107Z,97.60
2018-05-08T02:46:15.456Z,97.60
2018-05-08T02:48:43.836Z,97.50
2018-05-08T02:51:12.281Z,97.70
2018-05-08T02:53:40.612Z,97.90
2018-05-08T02:56:08.987Z,97.90
2018-05-08T02:58:37.471Z,98.00
2018-05-08T03:01:05.813Z,97.90
2018-05-08T03:03:34.924Z,97.90
2018-05-08T03:06:03.281Z,97.90
2018-05-08T03:08:31.637Z,97.90
2018-05-08T03:10:59.971Z,98.10
2018-05-08T03:13:28.315Z,98.00
2018-05-08T03:15:56.748Z,98.20
2018-05-08T03:18:25.155Z,98.30
2018-05-08T03:20:53.508Z,98.30
2018-05-08T03:23:21.837Z,98.30
2018-05-08T03:25:51.021Z,98.50
2018-05-08T03:28:19.374Z,98.50
2018-05-08T03:30:47.736Z,98.60
2018-05-08T03:33:16.084Z,98.80
2018-05-08T03:35:45.207Z,99.00
2018-05-08T03:38:13.573Z,99.00
2018-05-08T03:40:41.915Z,99.10
2018-05-08T03:43:10.264Z,99.20
2018-05-08T03:45:38.611Z,99.10
2018-05-08T03:48:06.993Z,99.20
2018-05-08T03:50:35.344Z,99.70
2018-05-08T03:53:03.813Z,99.30
2018-05-08T03:55:32.150Z,99.30
2018-05-08T03:58:00.493Z,99.30
2018-05-08T04:00:41.549Z,99.50
2018-05-08T04:09:13.527Z,99.60
2018-05-08T04:11:41.868Z,99.90
2018-05-08T04:14:10.993Z,99.90
2018-05-08T04:16:39.323Z,99.90
2018-05-08T04:19:08.503Z,99.90
2018-05-08T04:21:36.957Z,99.90
2018-05-08T04:24:05.415Z,99.80
2018-05-08T04:26:33.759Z,99.90
2018-05-08T04:29:02.948Z,99.90
2018-05-08T04:31:31.284Z,99.90
2018-05-08T04:33:59.613Z,99.90
2018-05-08T04:36:28.757Z,99.90
2018-05-08T04:38:57.120Z,99.90
2018-05-08T04:41:25.479Z,99.90
2018-05-08T04:43:54.641Z,99.90
2018-05-08T04:46:23.350Z,99.90
2018-05-08T04:48:51.767Z,99.90
2018-05-08T04:51:20.110Z,99.90
2018-05-08T04:53:50.146Z,99.90
2018-05-08T04:56:18.651Z,99.90
2018-05-08T04:58:46.999Z,99.90
2018-05-08T05:01:16.292Z,99.90
2018-05-08T05:03:44.714Z,99.90
2018-05-08T05:06:13.056Z,99.90
2018-05-08T05:08:42.180Z,99.70
2018-05-08T05:11:10.663Z,99.60
2018-05-08T05:13:38.922Z,99.40
2018-05-08T05:16:08.066Z,99.90
2018-05-08T05:18:36.415Z,99.90
2018-05-08T05:21:04.830Z,99.90
2018-05-08T05:23:33.177Z,99.80
2018-05-08T05:26:01.578Z,99.10
2018-05-08T05:28:30.035Z,98.70
2018-05-08T05:30:58.411Z,98.50
2018-05-08T05:33:26.894Z,98.10
2018-05-08T05:35:55.743Z,97.90
2018-05-08T05:38:24.247Z,97.80
2018-05-08T05:40:53.380Z,97.40
2018-05-08T05:43:21.735Z,97.40
2018-05-08T05:45:50.167Z,97.20
2018-05-08T05:48:18.633Z,96.80
2018-05-08T05:50:46.999Z,96.50
2018-05-08T05:53:15.465Z,96.30
2018-05-08T05:55:43.822Z,95.70
2018-05-08T05:58:12.978Z,95.50
2018-05-08T06:00:41.408Z,95.40
2018-05-08T06:03:10.508Z,94.80
2018-05-08T06:05:39.005Z,94.70
2018-05-08T06:08:07.377Z,94.90
2018-05-08T06:10:35.794Z,95.10
2018-05-08T06:13:04.216Z,94.90
2018-05-08T06:15:33.647Z,94.60
2018-05-08T06:18:01.995Z,94.60
2018-05-08T06:20:30.363Z,94.00
2018-05-08T06:22:59.015Z,93.70
2018-05-08T06:25:27.339Z,93.60
2018-05-08T06:27:56.454Z,93.20
2018-05-08T06:30:24.801Z,93.20
2018-05-08T06:32:53.156Z,92.80
2018-05-08T06:35:21.611Z,92.70
2018-05-08T06:37:50.027Z,92.40
2018-05-08T06:40:18.436Z,92.30
2018-05-08T06:42:46.895Z,92.40
2018-05-08T06:45:15.243Z,92.00
2018-05-08T06:47:43.625Z,91.90
2018-05-08T06:50:11.996Z,91.60
2018-05-08T06:52:40.377Z,91.70
2018-05-08T06:55:08.799Z,91.60
2018-05-08T06:57:37.354Z,91.70
2018-05-08T07:00:05.728Z,91.50
2018-05-08T07:02:34.098Z,91.10
2018-05-08T07:05:02.445Z,91.00
2018-05-08T07:07:30.816Z,90.90
2018-05-08T07:09:59.914Z,89.00
2018-05-08T07:12:29.026Z,89.00
2018-05-08T07:14:59.459Z,89.00
2018-05-08T07:17:31.650Z,89.50
2018-05-08T07:20:00.017Z,89.50
2018-05-08T07:22:28.415Z,87.80
2018-05-08T07:24:56.755Z,87.10
2018-05-08T07:27:25.089Z,87.80
2018-05-08T07:29:53.619Z,87.90
2018-05-08T07:32:21.897Z,87.90
2018-05-08T07:34:50.266Z,88.20
2018-05-08T07:37:19.383Z,86.90
2018-05-08T07:39:47.777Z,86.80
2018-05-08T07:42:16.149Z,86.50
2018-05-08T07:44:44.715Z,86.00
2018-05-08T07:47:13.071Z,86.50
2018-05-08T07:49:42.196Z,86.10
2018-05-08T07:52:10.642Z,86.10
2018-05-08T07:54:39.055Z,86.30
2018-05-08T07:57:07.399Z,84.30
2018-05-08T07:59:36.531Z,84.60
2018-05-08T08:02:04.869Z,84.50
2018-05-08T08:04:33.756Z,84.30
2018-05-08T08:07:02.189Z,84.00
2018-05-08T08:09:30.558Z,83.40
2018-05-08T08:11:58.952Z,83.20
2018-05-08T08:14:27.304Z,81.90
2018-05-08T08:16:55.698Z,81.80
2018-05-08T08:19:24.141Z,82.50
2018-05-08T08:21:52.579Z,83.30
2018-05-08T08:24:20.921Z,83.40
2018-05-08T08:26:50.065Z,81.60
2018-05-08T08:29:18.433Z,81.60
2018-05-08T08:31:46.782Z,80.30
2018-05-08T08:34:15.877Z,79.60
2018-05-08T08:36:44.220Z,79.60
2018-05-08T08:39:12.583Z,76.20
2018-05-08T08:41:40.930Z,76.40
2018-05-08T08:44:09.305Z,75.80
2018-05-08T08:46:37.910Z,75.10
2018-05-08T08:49:06.192Z,74.50
2018-05-08T08:51:34.517Z,75.00
2018-05-08T08:54:03.647Z,71.50
2018-05-08T08:56:32.031Z,71.50
2018-05-08T08:59:00.399Z,72.20
2018-05-08T09:01:28.803Z,73.80
2018-05-08T09:03:57.330Z,70.70
2018-05-08T09:06:25.721Z,71.90
2018-05-08T09:08:54.818Z,69.30
2018-05-08T09:11:23.277Z,69.30
2018-05-08T09:13:51.619Z,70.50
2018-05-08T09:16:19.986Z,68.30
2018-05-08T09:18:48.372Z,69.60
2018-05-08T09:21:16.741Z,68.90
2018-05-08T09:23:45.163Z,66.40
2018-05-08T09:26:13.508Z,67.30
2018-05-08T09:28:42.012Z,62.10
2018-05-08T09:31:10.350Z,61.10
2018-05-08T09:33:38.687Z,59.70
2018-05-08T09:36:07.135Z,58.90
2018-05-08T09:38:35.467Z,60.70
2018-05-08T09:41:04.597Z,59.20
2018-05-08T09:43:32.948Z,59.10
2018-05-08T09:46:02.056Z,57.90
2018-05-08T09:48:30.416Z,57.90
2018-05-08T09:50:58.948Z,57.50
2018-05-08T09:53:27.311Z,55.60
2018-05-08T09:55:55.691Z,55.10
2018-05-08T09:58:24.077Z,54.60
2018-05-08T10:00:52.441Z,53.60
2018-05-08T10:03:20.776Z,53.00
2018-05-08T10:05:49.271Z,54.80
2018-05-08T10:08:17.643Z,52.00
2018-05-08T10:10:45.994Z,52.40
2018-05-08T10:13:14.346Z,53.00
2018-05-08T10:15:42.740Z,52.00
2018-05-08T10:18:11.119Z,51.80
2018-05-08T10:20:39.734Z,50.90
2018-05-08T10:23:08.118Z,50.80
2018-05-08T10:25:36.555Z,51.70
2018-05-08T10:28:04.891Z,50.20
2018-05-08T10:30:33.254Z,48.30
2018-05-08T10:33:01.689Z,50.10
2018-05-08T10:35:29.976Z,48.90
2018-05-08T10:37:58.571Z,48.90
2018-05-08T10:40:27.731Z,49.50
2018-05-08T10:42:56.147Z,49.50
2018-05-08T10:45:24.519Z,48.90
2018-05-08T10:47:52.863Z,49.90
2018-05-08T10:50:21.266Z,49.30
2018-05-08T10:52:49.652Z,48.70
2018-05-08T10:55:18.331Z,46.90
2018-05-08T10:57:46.722Z,47.30
2018-05-08T11:00:15.399Z,49.00
2018-05-08T11:02:43.773Z,46.90
2018-05-08T11:05:12.258Z,45.90
2018-05-08T11:07:40.631Z,47.50
2018-05-08T11:10:09.009Z,47.10
2018-05-08T11:12:37.404Z,45.30
2018-05-08T11:15:05.775Z,45.30
2018-05-08T11:17:34.249Z,44.90
2018-05-08T11:20:02.643Z,44.40
2018-05-08T11:22:31.144Z,44.30
2018-05-08T11:24:59.502Z,45.10
2018-05-08T11:27:27.882Z,48.40
2018-05-08T11:29:56.263Z,45.60
2018-05-08T11:32:24.852Z,44.50
2018-05-08T11:34:54.105Z,46.70
2018-05-08T11:37:23.258Z,44.40
2018-05-08T11:39:51.613Z,44.40
2018-05-08T11:42:19.978Z,44.30
2018-05-08T11:44:48.436Z,45.60
2018-05-08T11:47:16.773Z,43.10
2018-05-08T11:49:45.164Z,43.30
2018-05-08T11:52:13.519Z,41.60
2018-05-08T11:54:41.871Z,43.50
2018-05-08T11:57:11.150Z,43.40
2018-05-08T11:59:39.595Z,43.20
2018-05-08T12:02:08.027Z,42.40
2018-05-08T12:04:37.132Z,44.20
2018-05-08T12:07:06.352Z,44.60
2018-05-08T12:09:34.718Z,44.50
2018-05-08T12:12:03.118Z,44.80
2018-05-08T12:14:31.503Z,41.70
2018-05-08T12:16:59.848Z,42.90
2018-05-08T12:19:28.970Z,40.90
2018-05-08T12:21:57.372Z,40.90
2018-05-08T12:24:25.772Z,40.40
2018-05-08T12:26:54.124Z,40.80
2018-05-08T12:29:22.477Z,40.50
2018-05-08T12:31:50.866Z,41.20
2018-05-08T12:34:19.318Z,40.90
2018-05-08T12:36:48.428Z,41.80
2018-05-08T12:39:16.813Z,41.70
2018-05-08T12:41:45.199Z,40.00
2018-05-08T12:44:13.585Z,40.60
2018-05-08T12:46:42.004Z,40.70
2018-05-08T12:49:10.455Z,41.10
2018-05-08T12:51:38.838Z,40.00
2018-05-08T12:54:07.242Z,39.40
2018-05-08T12:56:35.586Z,40.10
2018-05-08T12:59:04.034Z,39.10
2018-05-08T13:01:32.452Z,40.00
2018-05-08T13:04:00.814Z,39.60
2018-05-08T13:06:29.203Z,38.30
2018-05-08T13:08:57.664Z,40.20
2018-05-08T13:11:26.158Z,38.80
2018-05-08T13:13:54.533Z,39.90
2018-05-08T13:16:22.942Z,40.60
2018-05-08T13:18:51.427Z,39.00
2018-05-08T13:21:19.764Z,38.10
2018-05-08T13:23:48.203Z,39.80
2018-05-08T13:26:16.544Z,39.60
2018-05-08T13:28:45.112Z,38.70
2018-05-08T13:31:13.645Z,39.40
2018-05-08T13:33:41.968Z,37.90
2018-05-08T13:36:10.334Z,38.70
2018-05-08T13:38:39.426Z,38.00
2018-05-08T13:41:08.408Z,38.00
2018-05-08T13:43:36.863Z,36.50
2018-05-08T13:46:05.283Z,37.30
2018-05-08T13:48:34.514Z,38.00
2018-05-08T13:51:02.855Z,38.30
2018-05-08T13:53:31.986Z,39.00
2018-05-08T13:56:00.338Z,38.30
2018-05-08T13:58:29.523Z,36.90
2018-05-08T14:00:58.025Z,36.80
2018-05-08T14:03:26.302Z,36.40
2018-05-08T14:05:55.429Z,38.10
2018-05-08T14:08:23.783Z,38.10
2018-05-08T14:10:52.207Z,38.30
2018-05-08T14:13:20.679Z,38.90
2018-05-08T14:15:49.049Z,38.50
2018-05-08T14:18:17.431Z,37.70
2018-05-08T14:20:45.764Z,37.00
2018-05-08T14:23:14.981Z,37.20
2018-05-08T14:25:43.426Z,36.90
2018-05-08T14:28:11.839Z,36.10
2018-05-08T14:30:40.210Z,36.20
2018-05-08T14:33:09.662Z,36.30
2018-05-08T14:35:38.027Z,36.30
2018-05-08T14:38:06.399Z,36.80
2018-05-08T14:40:34.802Z,37.30
2018-05-08T14:43:03.225Z,37.00
2018-05-08T14:45:31.633Z,37.50
2018-05-08T14:48:00.056Z,37.10
2018-05-08T14:50:28.406Z,37.70
2018-05-08T14:52:56.739Z,38.20
2018-05-08T14:55:25.859Z,39.10
2018-05-08T14:57:54.208Z,39.30
2018-05-08T15:00:22.654Z,38.80
2018-05-08T15:02:51.155Z,37.70
2018-05-08T15:05:19.532Z,37.20
2018-05-08T15:07:47.860Z,37.80
2018-05-08T15:10:16.272Z,37.30
2018-05-08T15:12:45.114Z,37.80
2018-05-08T15:15:14.249Z,37.60
2018-05-08T15:17:42.635Z,37.50
2018-05-08T15:20:11.016Z,37.90
2018-05-08T15:22:39.387Z,37.60
2018-05-08T15:25:07.868Z,37.90
2018-05-08T15:27:36.232Z,38.70
2018-05-08T15:30:04.672Z,38.00
2018-05-08T15:32:33.105Z,38.10
2018-05-08T15:35:01.505Z,37.60
2018-05-08T15:37:29.978Z,37.50
2018-05-08T15:39:58.460Z,37.70
2018-05-08T15:42:26.830Z,37.90
2018-05-08T15:44:55.177Z,38.10
2018-05-08T15:47:23.675Z,37.40
2018-05-08T15:49:52.666Z,36.50
2018-05-08T15:52:21.080Z,36.40
2018-05-08T15:54:49.434Z,36.80
2018-05-08T15:57:17.828Z,37.10
2018-05-08T15:59:46.196Z,37.90
2018-05-08T16:02:14.572Z,37.80
2018-05-08T16:04:42.873Z,38.20
2018-05-08T16:07:11.400Z,38.70
2018-05-08T16:09:39.770Z,38.70
2018-05-08T16:12:08.208Z,37.90
2018-05-08T16:14:36.545Z,37.50
2018-05-08T16:17:05.663Z,37.30
2018-05-08T16:19:34.166Z,37.30
2018-05-08T16:22:02.545Z,36.70
2018-05-08T16:24:31.033Z,35.10
2018-05-08T16:26:59.412Z,35.00
2018-05-08T16:29:27.745Z,34.00
2018-05-08T16:31:57.607Z,34.50
2018-05-08T16:34:26.033Z,34.40
2018-05-08T16:36:55.146Z,33.30
2018-05-08T16:39:23.506Z,33.20
2018-05-08T16:41:51.924Z,33.10
2018-05-08T16:44:20.272Z,32.30
2018-05-08T16:46:49.387Z,31.80
2018-05-08T16:49:17.737Z,31.80
2018-05-08T16:51:46.079Z,30.90
2018-05-08T16:54:14.439Z,31.20
2018-05-08T16:56:42.806Z,31.10
2018-05-08T16:59:11.162Z,31.60
2018-05-08T17:01:40.275Z,32.30
2018-05-08T17:04:08.614Z,32.20
2018-05-08T17:06:37.081Z,32.80
2018-05-08T17:09:05.434Z,32.70
2018-05-08T17:11:33.817Z,33.60
2018-05-08T17:14:02.188Z,35.00
2018-05-08T17:16:30.529Z,36.50
2018-05-08T17:18:59.661Z,40.60
2018-05-08T17:21:28.075Z,40.50
2018-05-08T17:23:56.423Z,41.10
2018-05-08T17:26:24.861Z,42.30
2018-05-08T17:28:53.291Z,43.00
2018-05-08T17:31:21.669Z,43.90
2018-05-08T17:33:50.003Z,44.30
2018-05-08T17:36:19.134Z,45.90
2018-05-08T17:38:47.532Z,45.40
2018-05-08T17:41:15.887Z,46.20
2018-05-08T17:43:44.227Z,46.60
2018-05-08T17:46:12.763Z,47.30
2018-05-08T17:48:41.161Z,47.90
2018-05-08T17:51:09.574Z,48.50
2018-05-08T17:53:38.018Z,48.60
2018-05-08T17:56:07.310Z,48.90
2018-05-08T17:58:36.106Z,49.00
2018-05-08T18:01:05.299Z,49.80
2018-05-08T18:03:33.683Z,49.70
2018-05-08T18:06:02.031Z,49.70
2018-05-08T18:08:31.166Z,49.60
2018-05-08T18:10:59.515Z,49.60
2018-05-08T18:13:27.932Z,49.60
2018-05-08T18:15:56.303Z,50.00
2018-05-08T18:18:24.655Z,50.40
2018-05-08T18:20:53.002Z,51.10
2018-05-08T18:23:22.102Z,51.60
2018-05-08T18:25:50.496Z,51.60
2018-05-08T18:28:18.920Z,52.20
2018-05-08T18:30:47.392Z,52.60
2018-05-08T18:33:15.762Z,52.90
2018-05-08T18:35:44.138Z,53.60
2018-05-08T18:38:12.501Z,53.80
2018-05-08T18:40:40.889Z,53.80
2018-05-08T18:43:10.012Z,54.00
2018-05-08T18:45:38.366Z,54.10
2018-05-08T18:48:06.727Z,54.50
2018-05-08T18:50:35.110Z,54.80
2018-05-08T18:53:03.473Z,54.90
2018-05-08T18:55:31.839Z,55.10
2018-05-08T18:58:00.285Z,55.10
2018-05-08T19:03:23.772Z,55.20
2018-05-08T19:05:52.883Z,55.90
2018-05-08T19:08:21.230Z,55.80
2018-05-08T19:13:44.750Z,56.60
2018-05-08T19:16:13.513Z,56.70
2018-05-08T19:21:41.723Z,57.10
2018-05-08T19:24:15.817Z,57.50
2018-05-08T19:26:44.422Z,57.80
2018-05-08T19:29:18.311Z,57.90
2018-05-08T19:31:46.689Z,57.90
2018-05-08T19:34:15.224Z,58.00
2018-05-08T19:36:49.267Z,58.40
2018-05-08T19:39:17.612Z,58.40
2018-05-08T19:41:46.767Z,59.10
2018-05-08T19:44:15.255Z,58.40
2018-05-08T19:46:43.590Z,58.70
2018-05-08T19:49:12.810Z,59.20
2018-05-08T19:51:41.229Z,59.20
2018-05-08T19:54:09.597Z,59.70
2018-05-08T19:56:38.035Z,59.70
2018-05-08T19:59:06.385Z,59.70
2018-05-08T20:01:34.818Z,59.90
2018-05-08T20:04:03.232Z,60.20
2018-05-08T20:06:31.687Z,60.20
2018-05-08T20:09:00.033Z,60.90
2018-05-08T20:11:28.384Z,60.80
2018-05-08T20:13:56.728Z,60.80
2018-05-08T20:16:25.092Z,61.30
2018-05-08T20:18:53.451Z,61.50
2018-05-08T20:21:21.861Z,61.90
2018-05-08T20:23:50.206Z,63.60
2018-05-08T20:26:18.570Z,64.00
2018-05-08T20:28:47.688Z,63.40
2018-05-08T20:31:16.204Z,63.20
2018-05-08T20:33:44.553Z,63.30
2018-05-08T20:36:13.034Z,62.90
2018-05-08T20:38:41.304Z,62.70
2018-05-08T20:41:09.634Z,63.00
2018-05-08T20:43:38.129Z,63.30
2018-05-08T20:46:06.567Z,63.60
2018-05-08T20:48:35.155Z,63.90
2018-05-08T20:51:03.496Z,64.40
2018-05-08T20:53:31.863Z,64.30
2018-05-08T20:56:00.227Z,64.60
2018-05-08T20:58:29.311Z,64.80
2018-05-08T21:00:58.504Z,64.60
2018-05-08T21:03:26.773Z,65.90
2018-05-08T21:05:55.112Z,66.10
2018-05-08T21:08:24.227Z,67.10
2018-05-08T21:10:52.587Z,66.30
2018-05-08T21:13:20.956Z,66.20
2018-05-08T21:15:49.372Z,66.40
2018-05-08T21:18:17.714Z,66.70
2018-05-08T21:20:46.959Z,67.10
2018-05-08T21:23:15.335Z,67.10
2018-05-08T21:25:43.678Z,67.50
2018-05-08T21:28:17.801Z,67.80
2018-05-08T21:30:52.045Z,68.10
2018-05-08T21:33:20.308Z,68.50
2018-05-08T21:35:48.718Z,69.10
2018-05-08T21:38:17.048Z,69.20
2018-05-08T21:40:45.401Z,69.50
2018-05-08T21:43:13.888Z,69.40
2018-05-08T21:45:42.222Z,69.70
2018-05-08T21:48:10.577Z,69.90
2018-05-08T21:50:38.915Z,70.50
2018-05-08T21:53:07.263Z,70.80
2018-05-08T21:55:35.625Z,71.20
2018-05-08T21:58:03.977Z,71.30
2018-05-08T22:00:33.072Z,72.20
2018-05-08T22:11:12.482Z,72.80
2018-05-08T22:13:40.834Z,73.80
2018-05-08T22:16:09.969Z,74.50
2018-05-08T22:18:38.456Z,74.50
2018-05-08T22:21:06.810Z,74.90
2018-05-08T22:23:35.941Z,75.70
2018-05-08T22:26:04.466Z,75.60
2018-05-08T22:28:33.737Z,76.70
2018-05-08T22:31:02.235Z,76.00
2018-05-08T22:33:30.771Z,76.30
2018-05-08T22:35:59.116Z,76.20
2018-05-08T22:38:27.456Z,76.40
2018-05-08T22:40:55.975Z,76.90
2018-05-08T22:43:25.084Z,77.20
2018-05-08T22:45:54.200Z,77.60
2018-05-08T22:48:22.571Z,77.50
2018-05-08T22:50:51.000Z,77.80
2018-05-08T22:53:19.452Z,78.20
2018-05-08T22:55:47.826Z,78.10
2018-05-08T22:58:16.326Z,78.00
2018-05-08T23:00:44.791Z,78.60
2018-05-08T23:03:13.127Z,78.60
2018-05-08T23:05:41.471Z,78.30
2018-05-08T23:08:10.006Z,78.70
2018-05-08T23:10:39.114Z,79.40
2018-05-08T23:13:08.299Z,80.10
2018-05-08T23:15:36.631Z,80.10
2018-05-08T23:18:05.000Z,80.30
2018-05-08T23:20:33.357Z,80.50
2018-05-08T23:23:01.718Z,81.00
2018-05-08T23:25:30.223Z,81.60
2018-05-08T23:27:58.574Z,81.30
2018-05-08T23:30:27.768Z,82.10
2018-05-08T23:32:56.190Z,82.10
2018-05-08T23:35:24.742Z,82.80
2018-05-08T23:37:53.108Z,83.40
2018-05-08T23:40:22.230Z,84.00
2018-05-08T23:42:50.582Z,83.80
2018-05-08T23:45:19.741Z,85.40
2018-05-08T23:47:48.260Z,84.70
2018-05-08T23:50:17.646Z,84.90
2018-05-08T23:52:46.102Z,85.20
2018-05-08T23:55:14.451Z,85.00
2018-05-08T23:57:42.798Z,85.70
